sensor_id;sensor_type;location;lat;lon;timestamp;pressure;altitude;pressure_sealevel;temperature
63689;BMP280;54895;40.928;14.480;2023-03-01T00:02:02;100749.91;;;13.42
63689;BMP280;54895;40.928;14.480;2023-03-01T00:04:28;100765.78;;;13.40
63689;BMP280;54895;40.928;14.480;2023-03-01T00:06:55;100754.03;;;13.43
63689;BMP280;54895;40.928;14.480;2023-03-01T00:09:22;100731.72;;;13.33
63689;BMP280;54895;40.928;14.480;2023-03-01T00:11:48;100712.31;;;13.05
63689;BMP280;54895;40.928;14.480;2023-03-01T00:14:15;100683.50;;;13.11
63689;BMP280;54895;40.928;14.480;2023-03-01T00:16:44;100692.47;;;13.21
63689;BMP280;54895;40.928;14.480;2023-03-01T00:19:13;100708.25;;;13.12
63689;BMP280;54895;40.928;14.480;2023-03-01T00:21:40;100716.06;;;13.10
63689;BMP280;54895;40.928;14.480;2023-03-01T00:24:07;100692.41;;;12.86
63689;BMP280;54895;40.928;14.480;2023-03-01T00:26:34;100669.63;;;12.85
63689;BMP280;54895;40.928;14.480;2023-03-01T00:29:01;100695.28;;;12.88
63689;BMP280;54895;40.928;14.480;2023-03-01T00:31:29;100736.03;;;13.16
63689;BMP280;54895;40.928;14.480;2023-03-01T00:33:58;100776.06;;;13.36
63689;BMP280;54895;40.928;14.480;2023-03-01T00:36:28;100801.34;;;13.35
63689;BMP280;54895;40.928;14.480;2023-03-01T00:38:55;100807.31;;;13.49
63689;BMP280;54895;40.928;14.480;2023-03-01T00:41:22;100830.50;;;13.46
63689;BMP280;54895;40.928;14.480;2023-03-01T00:43:49;100838.13;;;13.42
63689;BMP280;54895;40.928;14.480;2023-03-01T00:46:18;100833.91;;;13.54
63689;BMP280;54895;40.928;14.480;2023-03-01T00:48:45;100857.50;;;13.63
63689;BMP280;54895;40.928;14.480;2023-03-01T00:51:15;100860.44;;;13.80
63689;BMP280;54895;40.928;14.480;2023-03-01T00:53:52;100867.50;;;14.06
63689;BMP280;54895;40.928;14.480;2023-03-01T00:56:26;100900.88;;;14.12
63689;BMP280;54895;40.928;14.480;2023-03-01T00:58:58;100904.84;;;14.26
63689;BMP280;54895;40.928;14.480;2023-03-01T01:01:29;100922.00;;;14.31
63689;BMP280;54895;40.928;14.480;2023-03-01T01:04:10;100939.88;;;14.36
63689;BMP280;54895;40.928;14.480;2023-03-01T01:06:45;100950.81;;;14.60
63689;BMP280;54895;40.928;14.480;2023-03-01T01:09:32;100961.91;;;14.72
63689;BMP280;54895;40.928;14.480;2023-03-01T01:15:11;100962.56;;;14.50
63689;BMP280;54895;40.928;14.480;2023-03-01T01:18:07;100960.41;;;14.05
63689;BMP280;54895;40.928;14.480;2023-03-01T01:20:36;100944.44;;;13.92
63689;BMP280;54895;40.928;14.480;2023-03-01T01:23:48;100951.66;;;13.49
63689;BMP280;54895;40.928;14.480;2023-03-01T01:26:37;100971.59;;;12.74
63689;BMP280;54895;40.928;14.480;2023-03-01T01:29:21;100983.22;;;12.50
63689;BMP280;54895;40.928;14.480;2023-03-01T01:35:17;100974.44;;;12.29
63689;BMP280;54895;40.928;14.480;2023-03-01T01:38:16;100970.41;;;12.49
63689;BMP280;54895;40.928;14.480;2023-03-01T01:40:50;100951.53;;;13.14
63689;BMP280;54895;40.928;14.480;2023-03-01T01:43:33;100954.53;;;13.30
63689;BMP280;54895;40.928;14.480;2023-03-01T01:49:11;100960.78;;;13.53
63689;BMP280;54895;40.928;14.480;2023-03-01T01:55:56;100944.91;;;13.27
63689;BMP280;54895;40.928;14.480;2023-03-01T01:58:27;100953.81;;;13.10
63689;BMP280;54895;40.928;14.480;2023-03-01T02:00:55;100933.31;;;12.92
63689;BMP280;54895;40.928;14.480;2023-03-01T02:03:26;100939.16;;;13.23
63689;BMP280;54895;40.928;14.480;2023-03-01T02:08:41;100830.03;;;11.86
63689;BMP280;54895;40.928;14.480;2023-03-01T02:11:10;100820.72;;;11.67
63689;BMP280;54895;40.928;14.480;2023-03-01T02:13:36;100785.66;;;11.50
63689;BMP280;54895;40.928;14.480;2023-03-01T02:16:14;100776.94;;;11.36
63689;BMP280;54895;40.928;14.480;2023-03-01T02:18:42;100770.06;;;11.28
63689;BMP280;54895;40.928;14.480;2023-03-01T02:24:00;100774.34;;;11.31
63689;BMP280;54895;40.928;14.480;2023-03-01T02:26:32;100764.00;;;11.53
63689;BMP280;54895;40.928;14.480;2023-03-01T02:29:00;100771.50;;;11.29
63689;BMP280;54895;40.928;14.480;2023-03-01T02:31:27;100790.75;;;11.35
63689;BMP280;54895;40.928;14.480;2023-03-01T02:34:17;100739.84;;;11.38
63689;BMP280;54895;40.928;14.480;2023-03-01T02:36:56;100709.63;;;11.23
63689;BMP280;54895;40.928;14.480;2023-03-01T02:39:59;100771.88;;;11.07
63689;BMP280;54895;40.928;14.480;2023-03-01T02:42:36;100780.41;;;10.87
63689;BMP280;54895;40.928;14.480;2023-03-01T02:45:07;100785.09;;;11.12
63689;BMP280;54895;40.928;14.480;2023-03-01T02:47:33;100790.28;;;11.05
63689;BMP280;54895;40.928;14.480;2023-03-01T02:50:00;100802.41;;;11.32
63689;BMP280;54895;40.928;14.480;2023-03-01T02:56:10;100824.38;;;11.77
63689;BMP280;54895;40.928;14.480;2023-03-01T02:58:43;100834.84;;;11.88
63689;BMP280;54895;40.928;14.480;2023-03-01T03:01:19;100829.50;;;11.75
63689;BMP280;54895;40.928;14.480;2023-03-01T03:03:47;100836.91;;;11.69
63689;BMP280;54895;40.928;14.480;2023-03-01T03:06:14;100833.69;;;11.83
63689;BMP280;54895;40.928;14.480;2023-03-01T03:08:41;100841.13;;;12.24
63689;BMP280;54895;40.928;14.480;2023-03-01T03:11:09;100839.69;;;12.36
63689;BMP280;54895;40.928;14.480;2023-03-01T03:13:36;100841.06;;;12.63
63689;BMP280;54895;40.928;14.480;2023-03-01T03:16:03;100841.09;;;12.50
63689;BMP280;54895;40.928;14.480;2023-03-01T03:18:31;100851.38;;;12.46
63689;BMP280;54895;40.928;14.480;2023-03-01T03:20:58;100853.44;;;12.60
63689;BMP280;54895;40.928;14.480;2023-03-01T03:23:25;100837.38;;;12.73
63689;BMP280;54895;40.928;14.480;2023-03-01T03:25:52;100844.16;;;12.54
63689;BMP280;54895;40.928;14.480;2023-03-01T03:28:19;100839.19;;;12.58
63689;BMP280;54895;40.928;14.480;2023-03-01T03:30:46;100838.25;;;12.68
63689;BMP280;54895;40.928;14.480;2023-03-01T03:33:13;100836.81;;;12.88
63689;BMP280;54895;40.928;14.480;2023-03-01T03:35:41;100837.03;;;12.97
63689;BMP280;54895;40.928;14.480;2023-03-01T03:38:10;100829.31;;;13.07
63689;BMP280;54895;40.928;14.480;2023-03-01T03:40:43;100828.72;;;13.01
63689;BMP280;54895;40.928;14.480;2023-03-01T03:43:13;100830.34;;;13.04
63689;BMP280;54895;40.928;14.480;2023-03-01T03:45:40;100824.63;;;13.00
63689;BMP280;54895;40.928;14.480;2023-03-01T03:48:08;100815.56;;;13.03
63689;BMP280;54895;40.928;14.480;2023-03-01T03:50:38;100816.91;;;13.17
63689;BMP280;54895;40.928;14.480;2023-03-01T03:56:47;100801.28;;;13.21
63689;BMP280;54895;40.928;14.480;2023-03-01T03:59:14;100809.69;;;13.52
63689;BMP280;54895;40.928;14.480;2023-03-01T04:01:40;100813.88;;;13.40
63689;BMP280;54895;40.928;14.480;2023-03-01T04:04:06;100821.44;;;13.29
63689;BMP280;54895;40.928;14.480;2023-03-01T04:06:34;100813.28;;;13.07
63689;BMP280;54895;40.928;14.480;2023-03-01T04:09:01;100806.19;;;12.89
63689;BMP280;54895;40.928;14.480;2023-03-01T04:11:31;100796.09;;;12.54
63689;BMP280;54895;40.928;14.480;2023-03-01T04:14:00;100786.84;;;12.55
63689;BMP280;54895;40.928;14.480;2023-03-01T04:16:27;100779.16;;;12.72
63689;BMP280;54895;40.928;14.480;2023-03-01T04:18:53;100779.81;;;12.65
63689;BMP280;54895;40.928;14.480;2023-03-01T04:21:20;100778.28;;;12.90
63689;BMP280;54895;40.928;14.480;2023-03-01T04:23:47;100780.69;;;12.60
63689;BMP280;54895;40.928;14.480;2023-03-01T04:26:13;100775.03;;;12.43
63689;BMP280;54895;40.928;14.480;2023-03-01T04:28:41;100768.44;;;12.64
63689;BMP280;54895;40.928;14.480;2023-03-01T04:31:16;100762.72;;;12.81
63689;BMP280;54895;40.928;14.480;2023-03-01T04:36:11;100780.28;;;12.76
63689;BMP280;54895;40.928;14.480;2023-03-01T04:38:39;100768.78;;;12.61
63689;BMP280;54895;40.928;14.480;2023-03-01T04:41:07;100752.38;;;12.57
63689;BMP280;54895;40.928;14.480;2023-03-01T04:43:34;100751.75;;;12.51
63689;BMP280;54895;40.928;14.480;2023-03-01T04:46:08;100747.91;;;12.39
63689;BMP280;54895;40.928;14.480;2023-03-01T04:48:38;100727.47;;;12.21
63689;BMP280;54895;40.928;14.480;2023-03-01T04:51:05;100738.03;;;12.47
63689;BMP280;54895;40.928;14.480;2023-03-01T04:53:33;100728.66;;;12.53
63689;BMP280;54895;40.928;14.480;2023-03-01T04:56:02;100741.91;;;12.87
63689;BMP280;54895;40.928;14.480;2023-03-01T04:58:29;100743.44;;;12.75
63689;BMP280;54895;40.928;14.480;2023-03-01T05:00:55;100740.38;;;12.71
63689;BMP280;54895;40.928;14.480;2023-03-01T05:03:22;100738.38;;;12.92
63689;BMP280;54895;40.928;14.480;2023-03-01T05:05:50;100757.09;;;13.20
63689;BMP280;54895;40.928;14.480;2023-03-01T05:08:17;100753.75;;;12.99
63689;BMP280;54895;40.928;14.480;2023-03-01T05:10:46;100754.97;;;12.49
63689;BMP280;54895;40.928;14.480;2023-03-01T05:13:13;100740.56;;;12.52
63689;BMP280;54895;40.928;14.480;2023-03-01T05:16:00;100748.06;;;12.74
63689;BMP280;54895;40.928;14.480;2023-03-01T05:18:29;100745.19;;;12.52
63689;BMP280;54895;40.928;14.480;2023-03-01T05:21:05;100752.31;;;12.49
63689;BMP280;54895;40.928;14.480;2023-03-01T05:23:32;100752.09;;;12.68
63689;BMP280;54895;40.928;14.480;2023-03-01T05:26:03;100740.56;;;12.32
63689;BMP280;54895;40.928;14.480;2023-03-01T05:28:30;100731.28;;;12.46
63689;BMP280;54895;40.928;14.480;2023-03-01T05:30:57;100729.81;;;12.45
63689;BMP280;54895;40.928;14.480;2023-03-01T05:33:24;100731.78;;;12.65
63689;BMP280;54895;40.928;14.480;2023-03-01T05:35:51;100734.00;;;12.74
63689;BMP280;54895;40.928;14.480;2023-03-01T05:38:19;100715.75;;;12.24
63689;BMP280;54895;40.928;14.480;2023-03-01T05:40:47;100736.47;;;12.31
63689;BMP280;54895;40.928;14.480;2023-03-01T05:43:15;100742.66;;;12.46
63689;BMP280;54895;40.928;14.480;2023-03-01T05:45:43;100734.84;;;12.28
63689;BMP280;54895;40.928;14.480;2023-03-01T05:48:10;100743.72;;;12.10
63689;BMP280;54895;40.928;14.480;2023-03-01T05:50:44;100736.16;;;12.01
63689;BMP280;54895;40.928;14.480;2023-03-01T05:53:13;100732.38;;;11.96
63689;BMP280;54895;40.928;14.480;2023-03-01T05:55:41;100728.69;;;11.99
63689;BMP280;54895;40.928;14.480;2023-03-01T05:58:15;100730.97;;;11.82
63689;BMP280;54895;40.928;14.480;2023-03-01T06:00:43;100730.69;;;11.86
63689;BMP280;54895;40.928;14.480;2023-03-01T06:03:11;100729.00;;;11.96
63689;BMP280;54895;40.928;14.480;2023-03-01T06:05:39;100743.72;;;12.10
63689;BMP280;54895;40.928;14.480;2023-03-01T06:08:06;100751.38;;;11.93
63689;BMP280;54895;40.928;14.480;2023-03-01T06:10:33;100742.56;;;11.72
63689;BMP280;54895;40.928;14.480;2023-03-01T06:12:59;100750.00;;;11.66
63689;BMP280;54895;40.928;14.480;2023-03-01T06:15:26;100736.25;;;11.49
63689;BMP280;54895;40.928;14.480;2023-03-01T06:17:54;100727.03;;;11.50
63689;BMP280;54895;40.928;14.480;2023-03-01T06:20:25;100736.44;;;11.64
63689;BMP280;54895;40.928;14.480;2023-03-01T06:22:52;100737.44;;;11.87
63689;BMP280;54895;40.928;14.480;2023-03-01T06:25:21;100751.19;;;11.78
63689;BMP280;54895;40.928;14.480;2023-03-01T06:27:48;100758.28;;;12.09
63689;BMP280;54895;40.928;14.480;2023-03-01T06:30:17;100769.91;;;12.32
63689;BMP280;54895;40.928;14.480;2023-03-01T06:32:44;100760.91;;;12.22
63689;BMP280;54895;40.928;14.480;2023-03-01T06:35:12;100763.72;;;12.57
63689;BMP280;54895;40.928;14.480;2023-03-01T06:37:40;100773.53;;;12.75
63689;BMP280;54895;40.928;14.480;2023-03-01T06:40:08;100788.16;;;12.82
63689;BMP280;54895;40.928;14.480;2023-03-01T06:42:39;100788.34;;;13.04
63689;BMP280;54895;40.928;14.480;2023-03-01T06:45:06;100791.38;;;13.36
63689;BMP280;54895;40.928;14.480;2023-03-01T06:47:33;100792.59;;;13.27
63689;BMP280;54895;40.928;14.480;2023-03-01T06:50:00;100796.78;;;13.43
63689;BMP280;54895;40.928;14.480;2023-03-01T06:56:41;100821.28;;;14.05
63689;BMP280;54895;40.928;14.480;2023-03-01T06:59:07;100831.31;;;14.20
63689;BMP280;54895;40.928;14.480;2023-03-01T07:01:33;100844.91;;;14.29
63689;BMP280;54895;40.928;14.480;2023-03-01T07:04:00;100843.50;;;14.43
63689;BMP280;54895;40.928;14.480;2023-03-01T07:06:26;100848.16;;;14.50
63689;BMP280;54895;40.928;14.480;2023-03-01T07:08:52;100843.38;;;14.71
63689;BMP280;54895;40.928;14.480;2023-03-01T07:11:18;100843.56;;;14.88
63689;BMP280;54895;40.928;14.480;2023-03-01T07:13:45;100856.91;;;15.18
63689;BMP280;54895;40.928;14.480;2023-03-01T07:16:11;100872.06;;;15.53
63689;BMP280;54895;40.928;14.480;2023-03-01T07:18:38;100907.22;;;15.72
63689;BMP280;54895;40.928;14.480;2023-03-01T07:21:06;100907.00;;;15.85
63689;BMP280;54895;40.928;14.480;2023-03-01T07:23:33;100907.00;;;15.78
63689;BMP280;54895;40.928;14.480;2023-03-01T07:25:59;100900.50;;;16.03
63689;BMP280;54895;40.928;14.480;2023-03-01T07:28:27;100906.22;;;16.00
63689;BMP280;54895;40.928;14.480;2023-03-01T07:30:53;100912.13;;;15.98
63689;BMP280;54895;40.928;14.480;2023-03-01T07:33:20;100918.72;;;16.05
63689;BMP280;54895;40.928;14.480;2023-03-01T07:35:46;100911.91;;;16.11
63689;BMP280;54895;40.928;14.480;2023-03-01T07:38:13;100914.34;;;16.24
63689;BMP280;54895;40.928;14.480;2023-03-01T07:40:39;100916.88;;;16.15
63689;BMP280;54895;40.928;14.480;2023-03-01T07:43:05;100925.13;;;16.09
63689;BMP280;54895;40.928;14.480;2023-03-01T07:45:32;100928.19;;;16.13
63689;BMP280;54895;40.928;14.480;2023-03-01T07:47:58;100921.69;;;15.84
63689;BMP280;54895;40.928;14.480;2023-03-01T07:50:24;100921.75;;;16.48
63689;BMP280;54895;40.928;14.480;2023-03-01T07:56:36;100931.59;;;17.19
63689;BMP280;54895;40.928;14.480;2023-03-01T07:59:03;100924.47;;;17.14
63689;BMP280;54895;40.928;14.480;2023-03-01T08:01:29;100920.19;;;17.11
63689;BMP280;54895;40.928;14.480;2023-03-01T08:03:55;100916.38;;;16.97
63689;BMP280;54895;40.928;14.480;2023-03-01T08:06:22;100927.81;;;17.22
63689;BMP280;54895;40.928;14.480;2023-03-01T08:08:48;100926.88;;;17.27
63689;BMP280;54895;40.928;14.480;2023-03-01T08:11:15;100927.44;;;17.42
63689;BMP280;54895;40.928;14.480;2023-03-01T08:13:42;100931.00;;;17.45
63689;BMP280;54895;40.928;14.480;2023-03-01T08:16:14;100927.91;;;17.65
63689;BMP280;54895;40.928;14.480;2023-03-01T08:18:41;100932.53;;;17.82
63689;BMP280;54895;40.928;14.480;2023-03-01T08:21:11;100946.47;;;17.88
63689;BMP280;54895;40.928;14.480;2023-03-01T08:23:37;100936.84;;;17.85
63689;BMP280;54895;40.928;14.480;2023-03-01T08:26:11;100943.59;;;18.03
63689;BMP280;54895;40.928;14.480;2023-03-01T08:28:38;100935.47;;;17.93
63689;BMP280;54895;40.928;14.480;2023-03-01T08:31:21;100946.97;;;17.77
63689;BMP280;54895;40.928;14.480;2023-03-01T08:33:50;100934.75;;;17.93
63689;BMP280;54895;40.928;14.480;2023-03-01T08:36:23;100937.22;;;18.25
63689;BMP280;54895;40.928;14.480;2023-03-01T08:38:50;100932.00;;;18.10
63689;BMP280;54895;40.928;14.480;2023-03-01T08:41:17;100923.63;;;18.32
63689;BMP280;54895;40.928;14.480;2023-03-01T08:43:44;100936.59;;;18.17
63689;BMP280;54895;40.928;14.480;2023-03-01T08:46:11;100933.63;;;17.96
63689;BMP280;54895;40.928;14.480;2023-03-01T08:48:38;100928.50;;;18.43
63689;BMP280;54895;40.928;14.480;2023-03-01T08:51:17;100928.44;;;18.60
63689;BMP280;54895;40.928;14.480;2023-03-01T08:57:12;100938.50;;;18.07
63689;BMP280;54895;40.928;14.480;2023-03-01T08:59:39;100941.63;;;18.30
63689;BMP280;54895;40.928;14.480;2023-03-01T09:02:11;100940.50;;;18.33
63689;BMP280;54895;40.928;14.480;2023-03-01T09:04:39;100943.19;;;18.59
63689;BMP280;54895;40.928;14.480;2023-03-01T09:07:06;100948.22;;;18.81
63689;BMP280;54895;40.928;14.480;2023-03-01T09:09:32;100946.63;;;18.69
63689;BMP280;54895;40.928;14.480;2023-03-01T09:11:58;100938.91;;;19.01
63689;BMP280;54895;40.928;14.480;2023-03-01T09:14:25;100953.13;;;19.11
63689;BMP280;54895;40.928;14.480;2023-03-01T09:16:51;100952.00;;;18.69
63689;BMP280;54895;40.928;14.480;2023-03-01T09:19:17;100952.88;;;18.72
63689;BMP280;54895;40.928;14.480;2023-03-01T09:21:44;100953.91;;;18.50
63689;BMP280;54895;40.928;14.480;2023-03-01T09:24:20;100956.59;;;18.95
63689;BMP280;54895;40.928;14.480;2023-03-01T09:26:47;100947.28;;;19.15
63689;BMP280;54895;40.928;14.480;2023-03-01T09:29:14;100945.13;;;19.89
63689;BMP280;54895;40.928;14.480;2023-03-01T09:31:41;100948.28;;;19.38
63689;BMP280;54895;40.928;14.480;2023-03-01T09:34:08;100953.41;;;19.72
63689;BMP280;54895;40.928;14.480;2023-03-01T09:36:34;100943.06;;;19.50
63689;BMP280;54895;40.928;14.480;2023-03-01T09:39:02;100951.44;;;19.44
63689;BMP280;54895;40.928;14.480;2023-03-01T09:44:24;100957.84;;;19.58
63689;BMP280;54895;40.928;14.480;2023-03-01T09:46:53;100958.97;;;20.24
63689;BMP280;54895;40.928;14.480;2023-03-01T09:49:40;100957.09;;;20.66
63689;BMP280;54895;40.928;14.480;2023-03-01T09:52:30;100957.16;;;20.77
63689;BMP280;54895;40.928;14.480;2023-03-01T09:54:59;100960.38;;;20.34
63689;BMP280;54895;40.928;14.480;2023-03-01T10:00:33;100958.31;;;18.81
63689;BMP280;54895;40.928;14.480;2023-03-01T10:03:16;100947.47;;;18.36
63689;BMP280;54895;40.928;14.480;2023-03-01T10:10:47;100937.69;;;17.87
63689;BMP280;54895;40.928;14.480;2023-03-01T10:13:19;100941.25;;;17.90
63689;BMP280;54895;40.928;14.480;2023-03-01T10:15:58;100935.34;;;17.40
63689;BMP280;54895;40.928;14.480;2023-03-01T10:18:29;100931.28;;;17.49
63689;BMP280;54895;40.928;14.480;2023-03-01T10:20:59;100936.06;;;17.41
63689;BMP280;54895;40.928;14.480;2023-03-01T10:23:27;100938.41;;;17.88
63689;BMP280;54895;40.928;14.480;2023-03-01T10:31:23;100930.06;;;18.91
63689;BMP280;54895;40.928;14.480;2023-03-01T10:33:54;100925.25;;;18.81
63689;BMP280;54895;40.928;14.480;2023-03-01T10:36:23;100923.53;;;18.40
63689;BMP280;54895;40.928;14.480;2023-03-01T10:38:52;100917.09;;;18.62
63689;BMP280;54895;40.928;14.480;2023-03-01T10:41:21;100906.22;;;18.43
63689;BMP280;54895;40.928;14.480;2023-03-01T10:43:52;100921.34;;;18.65
63689;BMP280;54895;40.928;14.480;2023-03-01T10:46:25;100920.94;;;18.06
63689;BMP280;54895;40.928;14.480;2023-03-01T10:49:14;100920.47;;;17.39
63689;BMP280;54895;40.928;14.480;2023-03-01T10:51:44;100926.38;;;17.89
63689;BMP280;54895;40.928;14.480;2023-03-01T10:57:35;100926.28;;;19.51
63689;BMP280;54895;40.928;14.480;2023-03-01T11:00:17;100923.59;;;19.32
63689;BMP280;54895;40.928;14.480;2023-03-01T11:03:03;100928.13;;;19.01
63689;BMP280;54895;40.928;14.480;2023-03-01T11:05:32;100928.72;;;19.28
63689;BMP280;54895;40.928;14.480;2023-03-01T11:08:01;100925.72;;;19.62
63689;BMP280;54895;40.928;14.480;2023-03-01T11:10:34;100928.28;;;19.60
63689;BMP280;54895;40.928;14.480;2023-03-01T11:13:18;100928.41;;;19.62
63689;BMP280;54895;40.928;14.480;2023-03-01T11:16:07;100925.31;;;19.37
63689;BMP280;54895;40.928;14.480;2023-03-01T11:18:36;100929.41;;;19.57
63689;BMP280;54895;40.928;14.480;2023-03-01T11:21:03;100924.28;;;19.71
63689;BMP280;54895;40.928;14.480;2023-03-01T11:23:31;100921.19;;;20.14
63689;BMP280;54895;40.928;14.480;2023-03-01T11:26:01;100929.13;;;20.22
63689;BMP280;54895;40.928;14.480;2023-03-01T11:28:29;100924.56;;;20.24
63689;BMP280;54895;40.928;14.480;2023-03-01T11:31:03;100917.44;;;19.89
63689;BMP280;54895;40.928;14.480;2023-03-01T11:33:52;100916.63;;;19.58
63689;BMP280;54895;40.928;14.480;2023-03-01T11:36:31;100911.28;;;19.98
63689;BMP280;54895;40.928;14.480;2023-03-01T11:39:31;100917.09;;;20.04
63689;BMP280;54895;40.928;14.480;2023-03-01T11:42:22;100919.78;;;20.13
63689;BMP280;54895;40.928;14.480;2023-03-01T11:44:54;100910.13;;;20.71
63689;BMP280;54895;40.928;14.480;2023-03-01T11:47:27;100902.63;;;20.81
63689;BMP280;54895;40.928;14.480;2023-03-01T11:50:08;100912.97;;;20.43
63689;BMP280;54895;40.928;14.480;2023-03-01T11:57:11;100899.56;;;20.45
63689;BMP280;54895;40.928;14.480;2023-03-01T12:05:52;100899.53;;;21.28
63689;BMP280;54895;40.928;14.480;2023-03-01T12:27:09;100892.81;;;19.94
63689;BMP280;54895;40.928;14.480;2023-03-01T12:29:51;100884.91;;;19.77
63689;BMP280;54895;40.928;14.480;2023-03-01T12:32:28;100880.97;;;20.39
63689;BMP280;54895;40.928;14.480;2023-03-01T12:38:20;100884.47;;;20.72
63689;BMP280;54895;40.928;14.480;2023-03-01T12:41:11;100885.31;;;19.83
63689;BMP280;54895;40.928;14.480;2023-03-01T12:44:05;100888.47;;;20.10
63689;BMP280;54895;40.928;14.480;2023-03-01T12:46:59;100888.69;;;19.93
63689;BMP280;54895;40.928;14.480;2023-03-01T12:49:33;100872.00;;;20.06
63689;BMP280;54895;40.928;14.480;2023-03-01T12:52:21;100877.25;;;20.44
63689;BMP280;54895;40.928;14.480;2023-03-01T13:02:56;100878.66;;;20.87
63689;BMP280;54895;40.928;14.480;2023-03-01T13:05:29;100878.13;;;21.21
63689;BMP280;54895;40.928;14.480;2023-03-01T13:08:20;100867.78;;;21.29
63689;BMP280;54895;40.928;14.480;2023-03-01T13:11:05;100868.75;;;21.01
63689;BMP280;54895;40.928;14.480;2023-03-01T13:13:36;100875.78;;;21.27
63689;BMP280;54895;40.928;14.480;2023-03-01T13:16:39;100868.53;;;21.64
63689;BMP280;54895;40.928;14.480;2023-03-01T13:19:11;100857.25;;;21.67
63689;BMP280;54895;40.928;14.480;2023-03-01T13:21:39;100868.56;;;21.87
63689;BMP280;54895;40.928;14.480;2023-03-01T13:29:44;100883.53;;;22.81
63689;BMP280;54895;40.928;14.480;2023-03-01T13:32:28;100875.63;;;22.99
63689;BMP280;54895;40.928;14.480;2023-03-01T13:37:27;100875.03;;;23.64
63689;BMP280;54895;40.928;14.480;2023-03-01T13:39:57;100872.63;;;23.83
63689;BMP280;54895;40.928;14.480;2023-03-01T13:42:35;100868.22;;;22.99
63689;BMP280;54895;40.928;14.480;2023-03-01T13:45:05;100871.69;;;22.88
63689;BMP280;54895;40.928;14.480;2023-03-01T13:47:41;100857.03;;;21.98
63689;BMP280;54895;40.928;14.480;2023-03-01T13:50:16;100861.19;;;22.46
63689;BMP280;54895;40.928;14.480;2023-03-01T13:52:50;100862.41;;;22.21
63689;BMP280;54895;40.928;14.480;2023-03-01T13:55:23;100861.22;;;22.23
63689;BMP280;54895;40.928;14.480;2023-03-01T13:57:57;100856.41;;;22.33
63689;BMP280;54895;40.928;14.480;2023-03-01T14:00:30;100868.44;;;23.03
63689;BMP280;54895;40.928;14.480;2023-03-01T14:03:19;100859.44;;;22.87
63689;BMP280;54895;40.928;14.480;2023-03-01T14:06:03;100859.75;;;22.57
63689;BMP280;54895;40.928;14.480;2023-03-01T14:08:30;100860.22;;;22.53
63689;BMP280;54895;40.928;14.480;2023-03-01T14:11:33;100855.03;;;22.10
63689;BMP280;54895;40.928;14.480;2023-03-01T14:16:38;100844.78;;;21.74
63689;BMP280;54895;40.928;14.480;2023-03-01T14:21:46;100846.09;;;21.17
63689;BMP280;54895;40.928;14.480;2023-03-01T14:24:20;100845.13;;;20.60
63689;BMP280;54895;40.928;14.480;2023-03-01T14:26:47;100843.38;;;20.43
63689;BMP280;54895;40.928;14.480;2023-03-01T14:31:51;100849.59;;;20.55
63689;BMP280;54895;40.928;14.480;2023-03-01T14:34:23;100833.59;;;20.17
63689;BMP280;54895;40.928;14.480;2023-03-01T14:36:50;100841.56;;;20.15
63689;BMP280;54895;40.928;14.480;2023-03-01T14:39:24;100846.94;;;20.15
63689;BMP280;54895;40.928;14.480;2023-03-01T14:41:52;100846.59;;;20.30
63689;BMP280;54895;40.928;14.480;2023-03-01T14:44:21;100841.03;;;20.07
63689;BMP280;54895;40.928;14.480;2023-03-01T14:46:52;100840.16;;;19.65
63689;BMP280;54895;40.928;14.480;2023-03-01T14:49:25;100828.78;;;20.58
63689;BMP280;54895;40.928;14.480;2023-03-01T14:52:05;100856.59;;;21.23
63689;BMP280;54895;40.928;14.480;2023-03-01T14:57:58;100854.56;;;20.28
63689;BMP280;54895;40.928;14.480;2023-03-01T15:00:28;100844.53;;;20.40
63689;BMP280;54895;40.928;14.480;2023-03-01T15:02:56;100834.44;;;20.41
63689;BMP280;54895;40.928;14.480;2023-03-01T15:07:55;100836.44;;;20.61
63689;BMP280;54895;40.928;14.480;2023-03-01T15:10:26;100834.81;;;19.95
63689;BMP280;54895;40.928;14.480;2023-03-01T15:12:53;100844.53;;;20.40
63689;BMP280;54895;40.928;14.480;2023-03-01T15:15:33;100826.13;;;20.69
63689;BMP280;54895;40.928;14.480;2023-03-01T15:18:02;100829.25;;;20.54
63689;BMP280;54895;40.928;14.480;2023-03-01T15:20:29;100828.06;;;20.78
63689;BMP280;54895;40.928;14.480;2023-03-01T15:23:02;100827.41;;;20.05
63689;BMP280;54895;40.928;14.480;2023-03-01T15:25:30;100834.00;;;20.44
63689;BMP280;54895;40.928;14.480;2023-03-01T15:27:58;100826.13;;;20.69
63689;BMP280;54895;40.928;14.480;2023-03-01T15:30:35;100828.97;;;20.29
63689;BMP280;54895;40.928;14.480;2023-03-01T15:35:50;100843.38;;;19.82
63689;BMP280;54895;40.928;14.480;2023-03-01T15:41:00;100835.50;;;19.56
63689;BMP280;54895;40.928;14.480;2023-03-01T15:43:46;100830.22;;;20.07
63689;BMP280;54895;40.928;14.480;2023-03-01T15:46:18;100831.47;;;20.16
63689;BMP280;54895;40.928;14.480;2023-03-01T15:48:50;100829.50;;;20.37
63689;BMP280;54895;40.928;14.480;2023-03-01T15:51:20;100825.09;;;20.53
63689;BMP280;54895;40.928;14.480;2023-03-01T15:57:34;100838.91;;;20.78
63689;BMP280;54895;40.928;14.480;2023-03-01T16:00:00;100830.75;;;20.99
63689;BMP280;54895;40.928;14.480;2023-03-01T16:02:27;100823.38;;;21.11
63689;BMP280;54895;40.928;14.480;2023-03-01T16:04:54;100843.59;;;21.77
63689;BMP280;54895;40.928;14.480;2023-03-01T16:07:22;100843.69;;;22.61
63689;BMP280;54895;40.928;14.480;2023-03-01T16:09:48;100847.91;;;23.00
63689;BMP280;54895;40.928;14.480;2023-03-01T16:12:16;100854.16;;;23.41
63689;BMP280;54895;40.928;14.480;2023-03-01T16:14:43;100846.47;;;23.89
63689;BMP280;54895;40.928;14.480;2023-03-01T16:17:09;100863.78;;;23.82
63689;BMP280;54895;40.928;14.480;2023-03-01T16:19:37;100859.63;;;23.95